Hauptseite
METAR-TAF:

METAR-TAF

Flughäfen :

Flughafen Peking

Peking, China

Breite: 39-56N, Länge: 116-17E, Höhe: 55 m

Beobachtung

Neuester Wetterbericht von vor 17 Minuten, um 08:00 UTC
Wind 2 kt aus unterschiedlichen Richtungen
Temperatur 29°C
Luftfeuchtigkeit 84%
Luftdruck 1004 hPa
Sichtweite: 3500 m
Geschlossene Wolkendecke in der Höhe von 3300 ft
feuchter Dunst

METAR: ZBAA 180800Z VRB01MPS 3500 BR OVC033 29/26 Q1004 NOSIG

Zeit: 16:17 (08:17 UTC)

Prognose

Neuester Wetterbericht von vor 4 Stunden und 57 Minuten, um 03:20 UTC
Gültige Prognose vom 18 um 06 UTC bis 19 um 06 UTC
Wind 8 kt aus Süd
Sichtweite: 3000 m
feuchter Dunst
Zeitweise
vom 19 um 02 UTC bis 19 um 06 UTC
Leicht bewölkt in der Höhe von 4000 ft, Kumulonimbus.

TAF: ZBAA 180320Z 1806/1906 18004MPS 3000 BR NSC TX33/1807Z TN25/1821Z TEMPO 1902/1906 FEW040CB

Wetterbeobachtungen und Prognosen von mehr als 4000 Flughäfen (METAR und TAF Bericht).

Die verfügbaren Stationen werden durch gelbe und rote Markierungen auf der Karte dargestellt.

Führen Sie die Maus auf sie, um den Namen der Station zu sehen.

Darauf klicken, um die Beobachtung von Wetterbeobachtungen und Prognosen zu sehen.

Um die Karte zu ändern : klicken Sie auf den grünen Tasten mit einem schwarzen Kreuz Zum Vergrößern, auf den grünen Button mit einem Gedankenstrich zu verkleinern, oder auf die grünen Pfeile für benachbarte Karten.


METAR-TAF: